sensor_id;sensor_type;location;lat;lon;timestamp;pressure;altitude;pressure_sealevel;temperature;humidity
4012;BME280;2020;48.682;9.024;2023-04-09T00:01:40;97058.28;;;5.07;89.97
4012;BME280;2020;48.682;9.024;2023-04-09T00:04:05;97057.25;;;5.10;90.08
4012;BME280;2020;48.682;9.024;2023-04-09T00:06:30;97059.34;;;5.05;89.77
4012;BME280;2020;48.682;9.024;2023-04-09T00:08:56;97057.91;;;5.01;90.27
4012;BME280;2020;48.682;9.024;2023-04-09T00:11:21;97059.75;;;4.98;90.16
4012;BME280;2020;48.682;9.024;2023-04-09T00:13:46;97050.03;;;5.02;90.45
4012;BME280;2020;48.682;9.024;2023-04-09T00:16:12;97055.03;;;4.92;90.89
4012;BME280;2020;48.682;9.024;2023-04-09T00:18:37;97048.00;;;4.94;91.44
4012;BME280;2020;48.682;9.024;2023-04-09T00:21:02;97050.78;;;4.91;91.55
4012;BME280;2020;48.682;9.024;2023-04-09T00:23:28;97050.66;;;4.93;92.05
4012;BME280;2020;48.682;9.024;2023-04-09T00:25:53;97047.88;;;4.96;91.30
4012;BME280;2020;48.682;9.024;2023-04-09T00:28:18;97048.00;;;4.94;91.87
4012;BME280;2020;48.682;9.024;2023-04-09T00:30:44;97040.97;;;4.96;91.36
4012;BME280;2020;48.682;9.024;2023-04-09T00:33:09;97045.94;;;5.00;92.12
4012;BME280;2020;48.682;9.024;2023-04-09T00:35:34;97047.28;;;4.92;92.37
4012;BME280;2020;48.682;9.024;2023-04-09T00:38:00;97049.66;;;4.95;92.80
4012;BME280;2020;48.682;9.024;2023-04-09T00:40:25;97038.50;;;4.95;92.16
4012;BME280;2020;48.682;9.024;2023-04-09T00:42:51;97040.97;;;4.96;92.02
4012;BME280;2020;48.682;9.024;2023-04-09T00:45:16;97041.91;;;4.95;92.26
4012;BME280;2020;48.682;9.024;2023-04-09T00:47:41;97038.41;;;4.96;92.05
4012;BME280;2020;48.682;9.024;2023-04-09T00:50:09;97039.31;;;4.95;92.15
4012;BME280;2020;48.682;9.024;2023-04-09T00:52:35;97043.66;;;4.95;91.96
4012;BME280;2020;48.682;9.024;2023-04-09T00:55:03;97037.56;;;4.96;92.37
4012;BME280;2020;48.682;9.024;2023-04-09T00:57:29;97038.69;;;4.92;92.53
4012;BME280;2020;48.682;9.024;2023-04-09T00:59:54;97041.41;;;4.90;92.55
4012;BME280;2020;48.682;9.024;2023-04-09T01:02:20;97037.38;;;4.86;93.12
4012;BME280;2020;48.682;9.024;2023-04-09T01:04:45;97033.16;;;4.85;93.17
4012;BME280;2020;48.682;9.024;2023-04-09T01:07:34;97043.47;;;4.85;93.15
4012;BME280;2020;48.682;9.024;2023-04-09T01:12:49;97042.53;;;4.86;93.86
4012;BME280;2020;48.682;9.024;2023-04-09T01:15:21;97038.09;;;4.88;93.38
4012;BME280;2020;48.682;9.024;2023-04-09T01:17:52;97042.63;;;4.85;92.98
4012;BME280;2020;48.682;9.024;2023-04-09T01:20:28;97039.03;;;4.87;93.79
4012;BME280;2020;48.682;9.024;2023-04-09T01:22:56;97033.75;;;4.89;93.24
4012;BME280;2020;48.682;9.024;2023-04-09T01:28:14;97036.66;;;4.84;93.49
4012;BME280;2020;48.682;9.024;2023-04-09T01:30:47;97043.69;;;4.82;93.43
4012;BME280;2020;48.682;9.024;2023-04-09T01:33:17;97040.97;;;4.83;93.34
4012;BME280;2020;48.682;9.024;2023-04-09T01:35:45;97038.03;;;4.77;93.75
4012;BME280;2020;48.682;9.024;2023-04-09T01:38:13;97041.41;;;4.77;94.18
4012;BME280;2020;48.682;9.024;2023-04-09T01:40:39;97041.19;;;4.80;93.47
4012;BME280;2020;48.682;9.024;2023-04-09T01:43:06;97043.91;;;4.79;92.87
4012;BME280;2020;48.682;9.024;2023-04-09T01:45:33;97040.19;;;4.83;93.36
4012;BME280;2020;48.682;9.024;2023-04-09T01:47:59;97038.53;;;4.82;93.20
4012;BME280;2020;48.682;9.024;2023-04-09T01:50:25;97042.03;;;4.81;94.12
4012;BME280;2020;48.682;9.024;2023-04-09T01:52:51;97040.38;;;4.80;93.76
4012;BME280;2020;48.682;9.024;2023-04-09T01:55:16;97042.25;;;4.78;93.93
4012;BME280;2020;48.682;9.024;2023-04-09T01:57:42;97042.25;;;4.78;93.49
4012;BME280;2020;48.682;9.024;2023-04-09T02:00:07;97042.47;;;4.75;94.21
4012;BME280;2020;48.682;9.024;2023-04-09T02:02:47;97038.75;;;4.79;94.04
4012;BME280;2020;48.682;9.024;2023-04-09T02:05:16;97040.38;;;4.80;94.18
4012;BME280;2020;48.682;9.024;2023-04-09T02:07:45;97045.34;;;4.83;93.87
4012;BME280;2020;48.682;9.024;2023-04-09T02:10:12;97036.66;;;4.84;93.91
4012;BME280;2020;48.682;9.024;2023-04-09T02:12:41;97046.47;;;4.79;94.84
4012;BME280;2020;48.682;9.024;2023-04-09T02:15:10;97042.25;;;4.78;94.43
4012;BME280;2020;48.682;9.024;2023-04-09T02:17:36;97037.91;;;4.78;94.26
4012;BME280;2020;48.682;9.024;2023-04-09T02:20:01;97039.66;;;4.78;94.22
4012;BME280;2020;48.682;9.024;2023-04-09T02:22:27;97033.16;;;4.72;95.14
4012;BME280;2020;48.682;9.024;2023-04-09T02:24:52;97033.78;;;4.76;95.59
4012;BME280;2020;48.682;9.024;2023-04-09T02:27:17;97035.03;;;4.70;95.13
4012;BME280;2020;48.682;9.024;2023-04-09T02:29:42;97034.22;;;4.70;95.75
4012;BME280;2020;48.682;9.024;2023-04-09T02:32:08;97024.69;;;4.70;95.53
4012;BME280;2020;48.682;9.024;2023-04-09T02:34:33;97038.44;;;4.71;95.37
4012;BME280;2020;48.682;9.024;2023-04-09T02:36:58;97025.75;;;4.67;95.36
4012;BME280;2020;48.682;9.024;2023-04-09T02:39:24;97032.34;;;4.72;95.61
4012;BME280;2020;48.682;9.024;2023-04-09T02:41:49;97036.06;;;4.67;95.83
4012;BME280;2020;48.682;9.024;2023-04-09T02:44:14;97032.56;;;4.68;96.54
4012;BME280;2020;48.682;9.024;2023-04-09T02:46:40;97032.78;;;4.65;95.73
4012;BME280;2020;48.682;9.024;2023-04-09T02:49:06;97031.63;;;4.57;96.46
4012;BME280;2020;48.682;9.024;2023-04-09T02:51:33;97033.56;;;4.53;96.48
4012;BME280;2020;48.682;9.024;2023-04-09T02:53:59;97032.63;;;4.54;96.45
4012;BME280;2020;48.682;9.024;2023-04-09T02:56:24;97033.56;;;4.53;96.16
4012;BME280;2020;48.682;9.024;2023-04-09T02:58:49;97030.06;;;4.54;96.50
4012;BME280;2020;48.682;9.024;2023-04-09T03:01:18;97031.72;;;4.55;96.47
4012;BME280;2020;48.682;9.024;2023-04-09T03:03:43;97025.84;;;4.53;96.43
4012;BME280;2020;48.682;9.024;2023-04-09T03:06:08;97028.41;;;4.53;95.81
4012;BME280;2020;48.682;9.024;2023-04-09T03:08:33;97028.41;;;4.53;96.64
4012;BME280;2020;48.682;9.024;2023-04-09T03:10:59;97025.84;;;4.53;96.49
4012;BME280;2020;48.682;9.024;2023-04-09T03:13:26;97019.97;;;4.51;96.48
4012;BME280;2020;48.682;9.024;2023-04-09T03:15:51;97018.09;;;4.53;96.87
4012;BME280;2020;48.682;9.024;2023-04-09T03:18:17;97015.53;;;4.53;96.77
4012;BME280;2020;48.682;9.024;2023-04-09T03:20:42;97018.94;;;4.53;97.21
4012;BME280;2020;48.682;9.024;2023-04-09T03:23:07;97017.16;;;4.54;96.41
4012;BME280;2020;48.682;9.024;2023-04-09T03:25:33;97017.91;;;4.56;96.21
4012;BME280;2020;48.682;9.024;2023-04-09T03:27:58;97013.66;;;4.55;96.16
4012;BME280;2020;48.682;9.024;2023-04-09T03:30:23;97013.78;;;4.53;96.52
4012;BME280;2020;48.682;9.024;2023-04-09T03:32:48;97011.28;;;4.52;96.58
4012;BME280;2020;48.682;9.024;2023-04-09T03:35:14;97015.00;;;4.48;96.85
4012;BME280;2020;48.682;9.024;2023-04-09T03:37:39;97009.25;;;4.44;96.72
4012;BME280;2020;48.682;9.024;2023-04-09T03:40:05;97015.66;;;4.51;96.64
4012;BME280;2020;48.682;9.024;2023-04-09T03:42:31;97013.56;;;4.44;96.21
4012;BME280;2020;48.682;9.024;2023-04-09T03:44:56;97006.66;;;4.31;96.77
4012;BME280;2020;48.682;9.024;2023-04-09T03:47:21;97011.53;;;4.36;97.45
4012;BME280;2020;48.682;9.024;2023-04-09T03:49:46;97010.69;;;4.35;97.37
4012;BME280;2020;48.682;9.024;2023-04-09T03:52:12;97009.03;;;4.34;96.75
4012;BME280;2020;48.682;9.024;2023-04-09T03:54:37;97003.88;;;4.34;97.52
4012;BME280;2020;48.682;9.024;2023-04-09T03:57:02;97014.59;;;4.28;97.19
4012;BME280;2020;48.682;9.024;2023-04-09T03:59:28;97006.16;;;4.26;96.64
4012;BME280;2020;48.682;9.024;2023-04-09T04:01:53;97011.41;;;4.24;97.25
4012;BME280;2020;48.682;9.024;2023-04-09T04:04:19;97010.16;;;4.30;97.21
4012;BME280;2020;48.682;9.024;2023-04-09T04:06:44;97009.25;;;4.31;96.96
4012;BME280;2020;48.682;9.024;2023-04-09T04:09:09;97013.78;;;4.28;96.69
4012;BME280;2020;48.682;9.024;2023-04-09T04:11:34;97016.47;;;4.26;97.67
4012;BME280;2020;48.682;9.024;2023-04-09T04:14:00;97011.31;;;4.26;97.85
4012;BME280;2020;48.682;9.024;2023-04-09T04:16:25;97012.75;;;4.30;97.82
4012;BME280;2020;48.682;9.024;2023-04-09T04:18:50;97019.75;;;4.28;97.55
4012;BME280;2020;48.682;9.024;2023-04-09T04:21:16;97016.38;;;4.28;97.68
4012;BME280;2020;48.682;9.024;2023-04-09T04:23:41;97024.91;;;4.28;97.62
4012;BME280;2020;48.682;9.024;2023-04-09T04:26:07;97024.09;;;4.28;97.65
4012;BME280;2020;48.682;9.024;2023-04-09T04:28:40;97026.75;;;4.26;97.74
4012;BME280;2020;48.682;9.024;2023-04-09T04:31:09;97027.91;;;4.22;98.10
4012;BME280;2020;48.682;9.024;2023-04-09T04:33:35;97027.69;;;4.25;97.48
4012;BME280;2020;48.682;9.024;2023-04-09T04:36:08;97025.31;;;4.22;97.57
4012;BME280;2020;48.682;9.024;2023-04-09T04:38:34;97028.81;;;4.21;97.40
4012;BME280;2020;48.682;9.024;2023-04-09T04:41:00;97027.38;;;4.17;97.58
4012;BME280;2020;48.682;9.024;2023-04-09T04:43:25;97032.53;;;4.17;98.08
4012;BME280;2020;48.682;9.024;2023-04-09T04:45:51;97029.34;;;4.13;97.87
4012;BME280;2020;48.682;9.024;2023-04-09T04:48:16;97038.19;;;4.22;98.63
4012;BME280;2020;48.682;9.024;2023-04-09T04:50:41;97032.13;;;4.23;98.20
4012;BME280;2020;48.682;9.024;2023-04-09T04:53:06;97023.47;;;4.24;97.76
4012;BME280;2020;48.682;9.024;2023-04-09T04:55:34;97028.63;;;4.24;97.77
4012;BME280;2020;48.682;9.024;2023-04-09T04:58:00;97025.31;;;4.22;97.88
4012;BME280;2020;48.682;9.024;2023-04-09T05:00:25;97028.72;;;4.22;97.64
4012;BME280;2020;48.682;9.024;2023-04-09T05:02:50;97031.41;;;4.21;97.96
4012;BME280;2020;48.682;9.024;2023-04-09T05:05:16;97033.97;;;4.21;97.52
4012;BME280;2020;48.682;9.024;2023-04-09T05:07:41;97033.16;;;4.20;97.68
4012;BME280;2020;48.682;9.024;2023-04-09T05:10:07;97039.34;;;4.18;97.46
4012;BME280;2020;48.682;9.024;2023-04-09T05:12:32;97027.38;;;4.17;98.11
4012;BME280;2020;48.682;9.024;2023-04-09T05:14:57;97032.31;;;4.20;98.14
4012;BME280;2020;48.682;9.024;2023-04-09T05:17:23;97032.31;;;4.20;97.85
4012;BME280;2020;48.682;9.024;2023-04-09T05:19:52;97037.06;;;4.26;97.48
4012;BME280;2020;48.682;9.024;2023-04-09T05:22:18;97035.41;;;4.25;97.58
4012;BME280;2020;48.682;9.024;2023-04-09T05:24:43;97038.94;;;4.24;97.77
4012;BME280;2020;48.682;9.024;2023-04-09T05:27:08;97041.81;;;4.19;97.28
4012;BME280;2020;48.682;9.024;2023-04-09T05:29:33;97039.34;;;4.18;98.05
4012;BME280;2020;48.682;9.024;2023-04-09T05:31:59;97037.06;;;4.26;97.33
4012;BME280;2020;48.682;9.024;2023-04-09T05:34:24;97036.88;;;4.29;96.76
4012;BME280;2020;48.682;9.024;2023-04-09T05:36:49;97039.34;;;4.31;97.28
4012;BME280;2020;48.682;9.024;2023-04-09T05:39:15;97035.22;;;4.28;97.71
4012;BME280;2020;48.682;9.024;2023-04-09T05:41:40;97037.91;;;4.27;97.61
4012;BME280;2020;48.682;9.024;2023-04-09T05:44:06;97033.38;;;4.30;98.15
4012;BME280;2020;48.682;9.024;2023-04-09T05:46:31;97022.63;;;4.36;98.83
4012;BME280;2020;48.682;9.024;2023-04-09T05:48:56;97028.63;;;4.37;97.90
4012;BME280;2020;48.682;9.024;2023-04-09T05:51:21;97029.44;;;4.37;97.76
4012;BME280;2020;48.682;9.024;2023-04-09T05:53:47;97029.03;;;4.44;96.75
4012;BME280;2020;48.682;9.024;2023-04-09T05:56:15;97033.78;;;4.50;96.76
4012;BME280;2020;48.682;9.024;2023-04-09T05:58:41;97031.91;;;4.52;96.94
4012;BME280;2020;48.682;9.024;2023-04-09T06:01:06;97036.97;;;4.41;96.95
4012;BME280;2020;48.682;9.024;2023-04-09T06:03:31;97039.13;;;4.47;96.95
4012;BME280;2020;48.682;9.024;2023-04-09T06:05:57;97035.84;;;4.45;96.68
4012;BME280;2020;48.682;9.024;2023-04-09T06:08:22;97042.03;;;4.55;96.74
4012;BME280;2020;48.682;9.024;2023-04-09T06:10:47;97038.09;;;4.62;96.80
4012;BME280;2020;48.682;9.024;2023-04-09T06:13:12;97038.31;;;4.72;96.47
4012;BME280;2020;48.682;9.024;2023-04-09T06:15:38;97041.44;;;5.15;97.66
4012;BME280;2020;48.682;9.024;2023-04-09T06:18:03;97041.09;;;5.56;94.79
4012;BME280;2020;48.682;9.024;2023-04-09T06:20:29;97049.00;;;5.91;93.31
4012;BME280;2020;48.682;9.024;2023-04-09T06:22:54;97042.56;;;6.21;90.81
4012;BME280;2020;48.682;9.024;2023-04-09T06:25:20;97039.88;;;6.45;90.10
4012;BME280;2020;48.682;9.024;2023-04-09T06:27:45;97029.47;;;6.58;89.19
4012;BME280;2020;48.682;9.024;2023-04-09T06:30:11;97030.75;;;6.64;87.64
4012;BME280;2020;48.682;9.024;2023-04-09T06:32:36;97031.81;;;6.72;84.85
4012;BME280;2020;48.682;9.024;2023-04-09T06:35:01;97034.78;;;6.79;83.32
4012;BME280;2020;48.682;9.024;2023-04-09T06:37:27;97039.34;;;6.76;82.45
4012;BME280;2020;48.682;9.024;2023-04-09T06:39:53;97037.69;;;6.86;83.77
4012;BME280;2020;48.682;9.024;2023-04-09T06:42:18;97032.16;;;7.02;82.22
4012;BME280;2020;48.682;9.024;2023-04-09T06:44:43;97040.28;;;6.97;80.57
4012;BME280;2020;48.682;9.024;2023-04-09T06:47:08;97048.03;;;6.86;78.73
4012;BME280;2020;48.682;9.024;2023-04-09T06:49:34;97043.56;;;6.77;80.91
4012;BME280;2020;48.682;9.024;2023-04-09T06:51:59;97046.41;;;6.85;80.71
4012;BME280;2020;48.682;9.024;2023-04-09T06:54:25;97051.69;;;6.95;78.95
4012;BME280;2020;48.682;9.024;2023-04-09T06:56:50;97051.69;;;7.17;79.20
4012;BME280;2020;48.682;9.024;2023-04-09T06:59:15;97047.06;;;7.44;79.16
4012;BME280;2020;48.682;9.024;2023-04-09T07:01:41;97051.19;;;7.24;78.87
4012;BME280;2020;48.682;9.024;2023-04-09T07:04:06;97060.34;;;7.39;78.12
4012;BME280;2020;48.682;9.024;2023-04-09T07:06:32;97056.91;;;7.61;79.38
4012;BME280;2020;48.682;9.024;2023-04-09T07:08:57;97058.41;;;7.97;79.65
4012;BME280;2020;48.682;9.024;2023-04-09T07:11:22;97051.53;;;8.07;78.66
4012;BME280;2020;48.682;9.024;2023-04-09T07:13:47;97053.63;;;8.13;76.76
4012;BME280;2020;48.682;9.024;2023-04-09T07:16:13;97054.00;;;8.30;75.65
4012;BME280;2020;48.682;9.024;2023-04-09T07:18:38;97057.66;;;8.48;75.58
4012;BME280;2020;48.682;9.024;2023-04-09T07:21:03;97060.47;;;8.57;75.15
4012;BME280;2020;48.682;9.024;2023-04-09T07:23:29;97058.13;;;8.32;79.03
4012;BME280;2020;48.682;9.024;2023-04-09T07:25:54;97058.16;;;8.00;76.17
4012;BME280;2020;48.682;9.024;2023-04-09T07:28:19;97053.13;;;8.19;76.35
4012;BME280;2020;48.682;9.024;2023-04-09T07:30:45;97057.66;;;8.48;75.90
4012;BME280;2020;48.682;9.024;2023-04-09T07:33:11;97060.13;;;8.92;79.93
4012;BME280;2020;48.682;9.024;2023-04-09T07:35:36;97060.72;;;9.06;74.72
4012;BME280;2020;48.682;9.024;2023-04-09T07:38:01;97064.47;;;9.23;77.65
4012;BME280;2020;48.682;9.024;2023-04-09T07:40:27;97063.56;;;9.34;72.32
4012;BME280;2020;48.682;9.024;2023-04-09T07:42:52;97068.53;;;9.57;74.93
4012;BME280;2020;48.682;9.024;2023-04-09T07:45:18;97070.09;;;9.28;69.35
4012;BME280;2020;48.682;9.024;2023-04-09T07:47:43;97069.94;;;8.46;67.72
4012;BME280;2020;48.682;9.024;2023-04-09T07:50:09;97072.28;;;8.92;71.19
4012;BME280;2020;48.682;9.024;2023-04-09T07:52:34;97070.81;;;8.99;66.58
4012;BME280;2020;48.682;9.024;2023-04-09T07:54:59;97067.66;;;9.36;73.01
4012;BME280;2020;48.682;9.024;2023-04-09T07:57:25;97065.03;;;8.86;67.08
4012;BME280;2020;48.682;9.024;2023-04-09T07:59:51;97063.53;;;8.62;65.81
4012;BME280;2020;48.682;9.024;2023-04-09T08:02:17;97067.81;;;8.52;71.71
4012;BME280;2020;48.682;9.024;2023-04-09T08:04:42;97065.00;;;8.43;69.79
4012;BME280;2020;48.682;9.024;2023-04-09T08:07:08;97058.84;;;8.56;69.55
4012;BME280;2020;48.682;9.024;2023-04-09T08:09:33;97060.22;;;8.60;66.19
4012;BME280;2020;48.682;9.024;2023-04-09T08:11:58;97055.34;;;8.88;65.42
4012;BME280;2020;48.682;9.024;2023-04-09T08:14:23;97066.31;;;8.70;63.24
4012;BME280;2020;48.682;9.024;2023-04-09T08:16:50;97068.81;;;8.39;61.78
4012;BME280;2020;48.682;9.024;2023-04-09T08:19:16;97078.59;;;8.14;63.08
4012;BME280;2020;48.682;9.024;2023-04-09T08:21:42;97073.88;;;8.19;66.67
4012;BME280;2020;48.682;9.024;2023-04-09T08:24:11;97076.28;;;8.32;62.02
4012;BME280;2020;48.682;9.024;2023-04-09T08:26:40;97084.84;;;8.66;59.72
4012;BME280;2020;48.682;9.024;2023-04-09T08:29:06;97081.09;;;8.37;58.08
4012;BME280;2020;48.682;9.024;2023-04-09T08:31:32;97084.47;;;8.49;61.89
4012;BME280;2020;48.682;9.024;2023-04-09T08:33:58;97073.41;;;8.99;62.16
4012;BME280;2020;48.682;9.024;2023-04-09T08:36:23;97081.88;;;9.32;59.67
4012;BME280;2020;48.682;9.024;2023-04-09T08:38:48;97080.22;;;9.31;59.60
4012;BME280;2020;48.682;9.024;2023-04-09T08:41:18;97081.00;;;9.22;58.96
4012;BME280;2020;48.682;9.024;2023-04-09T08:43:46;97083.81;;;9.50;60.04
4012;BME280;2020;48.682;9.024;2023-04-09T08:46:11;97083.81;;;9.50;57.42
4012;BME280;2020;48.682;9.024;2023-04-09T08:48:38;97078.56;;;9.91;57.37
4012;BME280;2020;48.682;9.024;2023-04-09T08:51:06;97088.84;;;10.12;56.68
4012;BME280;2020;48.682;9.024;2023-04-09T08:53:31;97084.97;;;10.06;55.81
4012;BME280;2020;48.682;9.024;2023-04-09T08:55:57;97088.84;;;10.12;55.15
4012;BME280;2020;48.682;9.024;2023-04-09T08:58:24;97092.09;;;10.04;53.38
4012;BME280;2020;48.682;9.024;2023-04-09T09:00:49;97089.31;;;9.57;52.08
4012;BME280;2020;48.682;9.024;2023-04-09T09:03:14;97091.00;;;8.96;54.39
4012;BME280;2020;48.682;9.024;2023-04-09T09:05:42;97088.22;;;8.77;55.29
4012;BME280;2020;48.682;9.024;2023-04-09T09:08:09;97093.41;;;8.77;57.83
4012;BME280;2020;48.682;9.024;2023-04-09T09:15:41;97096.78;;;8.99;56.08
4012;BME280;2020;48.682;9.024;2023-04-09T09:18:06;97089.94;;;8.98;57.08
4012;BME280;2020;48.682;9.024;2023-04-09T09:20:32;97091.31;;;9.02;57.09
4012;BME280;2020;48.682;9.024;2023-04-09T09:22:57;97091.53;;;9.81;57.61
4012;BME280;2020;48.682;9.024;2023-04-09T09:25:23;97087.53;;;9.57;56.15
4012;BME280;2020;48.682;9.024;2023-04-09T09:27:50;97093.41;;;9.49;54.85
4012;BME280;2020;48.682;9.024;2023-04-09T09:30:24;97099.75;;;9.86;56.06
4012;BME280;2020;48.682;9.024;2023-04-09T09:32:51;97101.00;;;10.21;56.30
4012;BME280;2020;48.682;9.024;2023-04-09T09:35:17;97102.50;;;10.34;56.39
4012;BME280;2020;48.682;9.024;2023-04-09T09:37:43;97101.44;;;10.07;54.43
4012;BME280;2020;48.682;9.024;2023-04-09T09:40:08;97099.75;;;9.76;55.00
4012;BME280;2020;48.682;9.024;2023-04-09T09:42:34;97092.06;;;9.75;56.40
4012;BME280;2020;48.682;9.024;2023-04-09T09:45:00;97087.44;;;9.88;56.64
4012;BME280;2020;48.682;9.024;2023-04-09T09:47:27;97099.19;;;9.92;57.00
4012;BME280;2020;48.682;9.024;2023-04-09T09:49:53;97093.44;;;9.69;54.48
4012;BME280;2020;48.682;9.024;2023-04-09T09:52:24;97091.88;;;9.47;55.70
4012;BME280;2020;48.682;9.024;2023-04-09T09:54:51;97090.66;;;9.51;58.01
4012;BME280;2020;48.682;9.024;2023-04-09T09:57:18;97095.00;;;9.41;56.73
4012;BME280;2020;48.682;9.024;2023-04-09T09:59:53;97103.59;;;9.31;55.91
4012;BME280;2020;48.682;9.024;2023-04-09T10:02:22;97101.63;;;9.14;54.26
4012;BME280;2020;48.682;9.024;2023-04-09T10:04:49;97099.63;;;9.27;57.97
4012;BME280;2020;48.682;9.024;2023-04-09T10:07:19;97101.34;;;9.17;52.96
4012;BME280;2020;48.682;9.024;2023-04-09T10:09:48;97104.22;;;9.14;52.24
4012;BME280;2020;48.682;9.024;2023-04-09T10:12:15;97102.84;;;9.10;54.58
4012;BME280;2020;48.682;9.024;2023-04-09T10:14:41;97095.00;;;9.31;56.48
4012;BME280;2020;48.682;9.024;2023-04-09T10:17:06;97094.38;;;9.17;54.02
4012;BME280;2020;48.682;9.024;2023-04-09T10:19:36;97095.31;;;9.16;57.21
4012;BME280;2020;48.682;9.024;2023-04-09T10:22:16;97097.66;;;9.19;55.62
4012;BME280;2020;48.682;9.024;2023-04-09T10:24:43;97100.25;;;9.60;57.51
4012;BME280;2020;48.682;9.024;2023-04-09T10:27:10;97090.72;;;9.90;54.83
4012;BME280;2020;48.682;9.024;2023-04-09T10:29:41;97103.88;;;10.18;53.64
4012;BME280;2020;48.682;9.024;2023-04-09T10:32:08;97090.97;;;9.87;53.81
4012;BME280;2020;48.682;9.024;2023-04-09T10:34:36;97092.63;;;9.78;53.51
4012;BME280;2020;48.682;9.024;2023-04-09T10:37:02;97086.31;;;9.61;53.02
4012;BME280;2020;48.682;9.024;2023-04-09T10:39:31;97090.88;;;9.28;55.15
4012;BME280;2020;48.682;9.024;2023-04-09T10:41:59;97091.66;;;9.19;54.58
4012;BME280;2020;48.682;9.024;2023-04-09T10:44:26;97093.38;;;9.40;55.07
4012;BME280;2020;48.682;9.024;2023-04-09T10:46:53;97088.22;;;9.59;59.06
4012;BME280;2020;48.682;9.024;2023-04-09T10:52:05;97086.47;;;9.19;54.36
4012;BME280;2020;48.682;9.024;2023-04-09T10:59:37;97075.38;;;9.68;51.60
4012;BME280;2020;48.682;9.024;2023-04-09T11:02:09;97075.91;;;9.61;51.95
4012;BME280;2020;48.682;9.024;2023-04-09T11:05:17;97073.28;;;9.42;53.61
4012;BME280;2020;48.682;9.024;2023-04-09T11:08:11;97074.69;;;9.65;51.75
4012;BME280;2020;48.682;9.024;2023-04-09T11:10:39;97080.06;;;9.84;52.73
4012;BME280;2020;48.682;9.024;2023-04-09T11:13:08;97068.53;;;9.66;51.32
4012;BME280;2020;48.682;9.024;2023-04-09T11:15:34;97076.94;;;9.29;51.02
4012;BME280;2020;48.682;9.024;2023-04-09T11:18:01;97072.31;;;9.43;52.22
4012;BME280;2020;48.682;9.024;2023-04-09T11:20:27;97067.41;;;9.59;48.73
4012;BME280;2020;48.682;9.024;2023-04-09T11:22:53;97072.91;;;9.66;50.34
4012;BME280;2020;48.682;9.024;2023-04-09T11:25:24;97068.25;;;9.60;46.31
4012;BME280;2020;48.682;9.024;2023-04-09T11:27:50;97049.94;;;10.20;46.95
4012;BME280;2020;48.682;9.024;2023-04-09T11:30:17;97055.59;;;10.83;46.97
4012;BME280;2020;48.682;9.024;2023-04-09T11:32:42;97056.59;;;11.00;44.30
4012;BME280;2020;48.682;9.024;2023-04-09T11:35:12;97055.47;;;11.12;45.67
4012;BME280;2020;48.682;9.024;2023-04-09T11:37:38;97068.16;;;10.88;45.39
4012;BME280;2020;48.682;9.024;2023-04-09T11:40:04;97059.28;;;10.90;44.46
4012;BME280;2020;48.682;9.024;2023-04-09T11:42:30;97063.75;;;10.98;44.38
4012;BME280;2020;48.682;9.024;2023-04-09T11:44:55;97071.28;;;10.63;44.77
4012;BME280;2020;48.682;9.024;2023-04-09T11:47:22;97070.72;;;10.50;45.67
4012;BME280;2020;48.682;9.024;2023-04-09T11:49:47;97071.31;;;10.14;46.71
4012;BME280;2020;48.682;9.024;2023-04-09T11:52:13;97074.59;;;10.16;45.85
4012;BME280;2020;48.682;9.024;2023-04-09T11:54:40;97071.00;;;10.47;46.20
4012;BME280;2020;48.682;9.024;2023-04-09T11:57:06;97066.63;;;10.47;47.91
4012;BME280;2020;48.682;9.024;2023-04-09T11:59:31;97066.59;;;10.57;45.82
4012;BME280;2020;48.682;9.024;2023-04-09T12:01:57;97082.81;;;10.41;46.07
4012;BME280;2020;48.682;9.024;2023-04-09T12:04:23;97077.56;;;10.51;46.81
4012;BME280;2020;48.682;9.024;2023-04-09T12:06:48;97072.94;;;11.30;50.30
4012;BME280;2020;48.682;9.024;2023-04-09T12:09:14;97072.16;;;11.48;48.29
4012;BME280;2020;48.682;9.024;2023-04-09T12:11:44;97063.78;;;11.90;50.52
4012;BME280;2020;48.682;9.024;2023-04-09T12:14:14;97057.66;;;11.99;44.45
4012;BME280;2020;48.682;9.024;2023-04-09T12:16:43;97057.00;;;11.79;45.34
4012;BME280;2020;48.682;9.024;2023-04-09T12:19:12;97060.09;;;11.19;46.05
4012;BME280;2020;48.682;9.024;2023-04-09T12:24:17;97055.75;;;11.09;46.38
4012;BME280;2020;48.682;9.024;2023-04-09T12:26:44;97054.72;;;11.48;45.69
4012;BME280;2020;48.682;9.024;2023-04-09T12:29:10;97050.66;;;11.46;47.25
4012;BME280;2020;48.682;9.024;2023-04-09T12:31:35;97052.00;;;11.50;45.33
4012;BME280;2020;48.682;9.024;2023-04-09T12:34:01;97054.25;;;11.81;45.23
4012;BME280;2020;48.682;9.024;2023-04-09T12:36:26;97052.88;;;11.40;45.45
4012;BME280;2020;48.682;9.024;2023-04-09T12:38:51;97040.84;;;11.76;49.59
4012;BME280;2020;48.682;9.024;2023-04-09T12:41:17;97040.53;;;12.15;44.98
4012;BME280;2020;48.682;9.024;2023-04-09T12:43:42;97024.69;;;12.35;44.04
4012;BME280;2020;48.682;9.024;2023-04-09T12:46:08;97043.59;;;12.55;45.00
4012;BME280;2020;48.682;9.024;2023-04-09T12:48:33;97035.13;;;12.35;44.37
4012;BME280;2020;48.682;9.024;2023-04-09T12:50:59;97037.56;;;11.74;44.67
4012;BME280;2020;48.682;9.024;2023-04-09T12:53:24;97038.28;;;11.48;45.56
4012;BME280;2020;48.682;9.024;2023-04-09T12:55:49;97038.44;;;11.64;46.83
4012;BME280;2020;48.682;9.024;2023-04-09T12:58:15;97032.34;;;11.74;45.21
4012;BME280;2020;48.682;9.024;2023-04-09T13:00:40;97036.50;;;11.66;45.58
4012;BME280;2020;48.682;9.024;2023-04-09T13:03:05;97031.75;;;11.80;45.92
4012;BME280;2020;48.682;9.024;2023-04-09T13:05:31;97032.28;;;12.46;45.28
4012;BME280;2020;48.682;9.024;2023-04-09T13:07:59;97016.81;;;12.53;44.73
4012;BME280;2020;48.682;9.024;2023-04-09T13:10:25;97018.34;;;12.11;44.69
4012;BME280;2020;48.682;9.024;2023-04-09T13:12:50;97012.09;;;12.04;43.81
4012;BME280;2020;48.682;9.024;2023-04-09T13:15:15;97018.84;;;11.96;44.21
4012;BME280;2020;48.682;9.024;2023-04-09T13:17:41;97011.31;;;11.75;44.53
4012;BME280;2020;48.682;9.024;2023-04-09T13:20:07;97013.13;;;11.75;43.23
4012;BME280;2020;48.682;9.024;2023-04-09T13:22:32;97013.84;;;12.21;46.40
4012;BME280;2020;48.682;9.024;2023-04-09T13:24:57;97017.75;;;12.70;45.70
4012;BME280;2020;48.682;9.024;2023-04-09T13:27:23;97009.75;;;12.71;42.41
4012;BME280;2020;48.682;9.024;2023-04-09T13:29:48;97001.78;;;12.73;42.18
4012;BME280;2020;48.682;9.024;2023-04-09T13:32:13;96995.59;;;12.82;42.73
4012;BME280;2020;48.682;9.024;2023-04-09T13:34:38;97008.88;;;12.97;42.21
4012;BME280;2020;48.682;9.024;2023-04-09T13:37:04;97001.47;;;12.76;41.82
4012;BME280;2020;48.682;9.024;2023-04-09T13:39:30;96991.94;;;12.67;41.58
4012;BME280;2020;48.682;9.024;2023-04-09T13:41:55;96987.44;;;12.77;43.54
4012;BME280;2020;48.682;9.024;2023-04-09T13:44:22;96989.69;;;12.72;42.59
4012;BME280;2020;48.682;9.024;2023-04-09T13:46:47;96987.63;;;12.57;40.89